Time;durP1;ratioP1;P1;durP2;ratioP2;P2;SDS_P1;SDS_P2;PMS_P1;PMS_P2;Temp;Humidity;BMP_temperature;BMP_pressure;BME280_temperature;BME280_humidity;BME280_pressure;Samples;Min_cycle;Max_cycle;Signal;HPM_P1;HPM_P2
2023/09/02 00:00:38;;;;;;;9.40;6.10;;;;;;;15.48;90.00;100735.02;105823;1265;98522;-84
2023/09/02 00:03:39;;;;;;;13.00;8.20;;;;;;;15.43;90.38;100733.52;105939;1260;101403;-84
2023/09/02 00:06:25;;;;;;;14.80;8.30;;;;;;;15.40;90.57;100732.66;105730;1264;99771;-84
2023/09/02 00:09:11;;;;;;;11.10;7.10;;;;;;;15.36;90.46;100736.73;105533;1261;98661;-85
2023/09/02 00:11:57;;;;;;;12.80;7.50;;;;;;;15.33;90.33;100736.23;105704;1260;97935;-84
2023/09/02 00:14:42;;;;;;;15.90;7.30;;;;;;;15.29;90.62;100741.51;105691;1261;97888;-84
2023/09/02 00:17:31;;;;;;;10.70;6.80;;;;;;;15.25;90.80;100744.09;105764;1260;101500;-86
2023/09/02 00:20:20;;;;;;;9.90;5.60;;;;;;;15.19;90.63;100744.95;105707;1263;100471;-85
2023/09/02 00:23:07;;;;;;;9.30;5.40;;;;;;;15.15;90.75;100748.90;105789;1263;99075;-84
2023/09/02 00:25:52;;;;;;;9.80;5.60;;;;;;;15.12;90.93;100750.13;105531;1267;96419;-84
2023/09/02 00:28:38;;;;;;;11.20;5.50;;;;;;;15.07;90.84;100750.44;105702;1264;97997;-84
2023/09/02 00:31:24;;;;;;;7.90;5.40;;;;;;;15.04;90.90;100746.79;105738;1260;102737;-83
2023/09/02 00:34:09;;;;;;;11.00;6.90;;;;;;;15.02;91.20;100744.71;105694;1260;99223;-83
2023/09/02 00:36:55;;;;;;;7.60;5.30;;;;;;;15.00;91.33;100743.85;105652;1261;97975;-85
2023/09/02 00:39:40;;;;;;;10.10;5.00;;;;;;;14.98;91.46;100744.92;105646;1264;98062;-85
2023/09/02 00:42:28;;;;;;;7.60;5.30;;;;;;;14.95;91.53;100740.88;105816;1263;98429;-83
2023/09/02 00:45:15;;;;;;;15.40;6.80;;;;;;;14.94;91.60;100741.29;105504;1260;308973;-87
2023/09/02 00:48:02;;;;;;;14.00;8.20;;;;;;;14.93;91.72;100741.70;105606;1261;100195;-85
2023/09/02 00:50:48;;;;;;;13.30;7.40;;;;;;;14.92;91.66;100744.83;105694;1260;98052;-84
2023/09/02 00:53:33;;;;;;;11.30;7.20;;;;;;;14.92;91.70;100750.34;105672;1267;98121;-85
2023/09/02 00:56:20;;;;;;;16.90;9.10;;;;;;;14.93;92.08;100747.27;105706;1264;98071;-85
2023/09/02 00:59:07;;;;;;;10.10;7.50;;;;;;;14.92;92.49;100748.45;105590;1264;101364;-83
2023/09/02 01:01:55;;;;;;;13.10;8.50;;;;;;;14.92;92.51;100755.33;105636;1259;99250;-85
2023/09/02 01:04:41;;;;;;;10.10;8.00;;;;;;;14.90;92.56;100762.34;105548;1260;99575;-85
2023/09/02 01:07:29;;;;;;;9.70;7.40;;;;;;;14.89;92.47;100765.08;105732;1261;98030;-85
2023/09/02 01:10:15;;;;;;;9.50;6.90;;;;;;;14.87;92.64;100764.25;105709;1264;97988;-86
2023/09/02 01:13:02;;;;;;;12.40;7.60;;;;;;;14.84;92.65;100772.34;105668;1260;102755;-85
2023/09/02 01:15:48;;;;;;;12.40;6.60;;;;;;;14.82;92.57;100780.24;105572;1262;99072;-86
2023/09/02 01:18:35;;;;;;;11.10;6.30;;;;;;;14.80;92.74;100775.84;105794;1264;98551;-85
2023/09/02 01:21:27;;;;;;;8.90;5.80;;;;;;;14.76;92.87;100772.56;105687;1260;98049;-86
2023/09/02 01:24:30;;;;;;;12.70;6.70;;;;;;;14.72;92.77;100769.38;105661;1260;98439;-84
2023/09/02 01:27:28;;;;;;;8.60;6.40;;;;;;;14.70;93.04;100770.38;105860;1265;101369;-83
2023/09/02 01:30:21;;;;;;;7.10;5.60;;;;;;;14.67;93.12;100770.02;105765;1267;100089;-84
2023/09/02 01:33:09;;;;;;;8.00;5.50;;;;;;;14.65;93.11;100768.19;105545;1261;99142;-84
2023/09/02 01:36:00;;;;;;;8.90;5.40;;;;;;;14.61;92.94;100767.04;105548;1262;97956;-84
2023/09/02 01:38:46;;;;;;;10.10;5.80;;;;;;;14.58;93.19;100769.85;105687;1261;97905;-83
2023/09/02 01:41:32;;;;;;;11.20;6.00;;;;;;;14.55;93.32;100761.52;105726;1266;103202;-85
2023/09/02 01:44:19;;;;;;;9.60;5.70;;;;;;;14.53;93.34;100761.31;105756;1260;99067;-84
2023/09/02 01:47:05;;;;;;;10.70;6.00;;;;;;;14.51;93.22;100762.69;105708;1263;98057;-84
2023/09/02 01:49:51;;;;;;;8.70;6.80;;;;;;;14.49;93.39;100762.14;105604;1260;98409;-83
2023/09/02 01:52:38;;;;;;;7.70;6.10;;;;;;;14.47;93.46;100759.28;105570;1266;97905;-84
2023/09/02 01:55:24;;;;;;;9.50;7.00;;;;;;;14.47;93.79;100759.51;105578;1266;101442;-85
2023/09/02 01:58:11;;;;;;;8.40;5.50;;;;;;;14.47;93.69;100762.52;105736;1261;108547;-83
2023/09/02 02:00:58;;;;;;;8.30;6.20;;;;;;;14.44;93.84;100763.67;105709;1260;97852;-86
2023/09/02 02:04:04;;;;;;;8.60;5.60;;;;;;;14.41;93.73;100769.02;105463;1261;98001;-86
2023/09/02 02:06:55;;;;;;;8.20;6.00;;;;;;;14.37;93.78;100768.86;105432;1264;98446;-84
2023/09/02 02:09:45;;;;;;;7.60;5.50;;;;;;;14.32;93.86;100768.56;105752;1260;103297;-83
2023/09/02 02:12:32;;;;;;;11.30;6.00;;;;;;;14.29;93.96;100770.76;105437;1266;99269;-85
2023/09/02 02:15:17;;;;;;;9.60;5.60;;;;;;;14.27;94.22;100773.22;105691;1267;98101;-87
2023/09/02 02:18:03;;;;;;;9.70;6.20;;;;;;;14.27;94.65;100770.45;105672;1263;98000;-84
2023/09/02 02:21:18;;;;;;;14.20;8.60;;;;;;;14.30;94.81;100765.88;105651;1260;98046;-85
2023/09/02 02:24:03;;;;;;;13.30;8.30;;;;;;;14.31;94.97;100767.27;105617;1261;101464;-84
2023/09/02 02:26:49;;;;;;;12.40;7.60;;;;;;;14.32;95.21;100769.27;105616;1260;99313;-85
2023/09/02 02:29:34;;;;;;;12.70;8.10;;;;;;;14.32;94.90;100772.23;105825;1260;98454;-85
2023/09/02 02:32:20;;;;;;;13.40;8.10;;;;;;;14.31;94.91;100773.95;105629;1260;98006;-85
2023/09/02 02:35:06;;;;;;;14.40;8.10;;;;;;;14.29;94.49;100777.21;105576;1261;96135;-83
2023/09/02 02:37:52;;;;;;;11.90;7.80;;;;;;;14.27;94.28;100781.67;105699;1266;101479;-83
2023/09/02 02:40:38;;;;;;;10.70;7.20;;;;;;;14.23;94.15;100785.93;105636;1260;99270;-84
2023/09/02 02:43:26;;;;;;;9.90;6.80;;;;;;;14.19;93.83;100788.30;105772;1260;97984;-84
2023/09/02 02:46:12;;;;;;;9.00;6.40;;;;;;;14.16;93.66;100788.35;105947;1265;97990;-85
2023/09/02 02:48:58;;;;;;;10.30;7.00;;;;;;;14.12;93.77;100791.07;105594;1269;98411;-84
2023/09/02 02:51:43;;;;;;;10.10;6.70;;;;;;;14.07;93.88;100788.57;105623;1264;101354;-85
2023/09/02 02:54:29;;;;;;;11.40;6.70;;;;;;;14.04;93.94;100788.02;105683;1267;99216;-86
2023/09/02 02:57:17;;;;;;;10.20;6.40;;;;;;;14.03;94.02;100783.71;105686;1261;97962;-85
2023/09/02 03:00:03;;;;;;;10.40;6.50;;;;;;;14.01;94.01;100783.83;105697;1261;97965;-86
2023/09/02 03:02:51;;;;;;;9.10;6.40;;;;;;;13.97;94.23;100783.98;105648;1264;98522;-85
2023/09/02 03:05:41;;;;;;;12.00;6.90;;;;;;;13.92;93.96;100781.80;105786;1261;103080;-84
2023/09/02 03:08:27;;;;;;;7.20;5.50;;;;;;;13.87;94.08;100784.35;105554;1261;99302;-85
2023/09/02 03:11:13;;;;;;;9.50;5.70;;;;;;;13.79;94.11;100785.58;105452;1261;98479;-86
2023/09/02 03:13:59;;;;;;;8.30;5.50;;;;;;;13.74;94.05;100784.30;105651;1261;98022;-85
2023/09/02 03:16:47;;;;;;;10.50;6.50;;;;;;;13.70;93.96;100784.18;105712;1260;98471;-86
2023/09/02 03:19:32;;;;;;;7.80;5.60;;;;;;;13.67;94.27;100783.13;105604;1260;103050;-85
2023/09/02 03:22:19;;;;;;;8.30;6.70;;;;;;;13.65;94.36;100785.02;105651;1264;99177;-86
2023/09/02 03:25:06;;;;;;;8.30;5.60;;;;;;;13.60;93.83;100784.34;105627;1260;98081;-84
2023/09/02 03:27:52;;;;;;;9.20;5.90;;;;;;;13.57;93.78;100786.06;105706;1260;97866;-86
2023/09/02 03:30:37;;;;;;;10.20;5.70;;;;;;;13.55;93.45;100783.66;105776;1260;98054;-86
2023/09/02 03:33:24;;;;;;;9.40;6.10;;;;;;;13.54;93.46;100781.29;105547;1260;102682;-83
2023/09/02 03:36:16;;;;;;;7.10;5.80;;;;;;;13.52;93.82;100780.63;105729;1261;100868;-84
2023/09/02 03:39:03;;;;;;;8.40;6.60;;;;;;;13.48;94.13;100781.56;105665;1260;99101;-83
2023/09/02 03:41:49;;;;;;;9.60;6.30;;;;;;;13.44;94.14;100782.01;105586;1266;98066;-83
2023/09/02 03:44:34;;;;;;;8.20;6.50;;;;;;;13.44;94.51;100778.48;105708;1261;98444;-85
2023/09/02 03:47:20;;;;;;;9.00;6.00;;;;;;;13.44;94.67;100778.70;105597;1260;101909;-84
2023/09/02 03:50:08;;;;;;;10.80;6.40;;;;;;;13.44;94.68;100772.23;105858;1260;99163;-83
2023/09/02 03:52:54;;;;;;;9.50;5.80;;;;;;;13.42;94.24;100772.23;105755;1264;99059;-84
2023/09/02 03:55:39;;;;;;;9.60;6.60;;;;;;;13.39;93.88;100772.21;105732;1261;97990;-83
2023/09/02 03:58:28;;;;;;;11.00;6.70;;;;;;;13.36;94.23;100770.71;105585;1260;98081;-84
2023/09/02 04:01:14;;;;;;;12.50;6.30;;;;;;;13.34;94.20;100772.11;105769;1261;102842;-84
2023/09/02 04:04:00;;;;;;;9.90;7.20;;;;;;;13.31;94.05;100770.02;105724;1260;101638;-85
2023/09/02 04:06:45;;;;;;;10.60;6.10;;;;;;;13.27;93.58;100771.91;105666;1261;97911;-82
2023/09/02 04:09:33;;;;;;;12.80;6.70;;;;;;;13.24;93.69;100775.25;105726;1266;97997;-84
2023/09/02 04:12:19;;;;;;;7.90;6.30;;;;;;;13.19;93.70;100778.25;105612;1269;97995;-84
2023/09/02 04:15:05;;;;;;;12.50;7.20;;;;;;;13.15;93.87;100781.50;105843;1261;102692;-84
2023/09/02 04:17:51;;;;;;;12.40;6.60;;;;;;;13.15;94.15;100785.36;105731;1260;99353;-83
2023/09/02 04:20:37;;;;;;;10.20;7.10;;;;;;;13.16;94.34;100789.20;105814;1263;98339;-86
2023/09/02 04:23:23;;;;;;;8.20;6.30;;;;;;;13.16;94.32;100785.92;105838;1264;98928;-84
2023/09/02 04:26:09;;;;;;;7.60;5.70;;;;;;;13.14;94.35;100792.95;105765;1267;97960;-84
2023/09/02 04:28:55;;;;;;;10.80;5.50;;;;;;;13.11;94.23;100800.02;105603;1264;101326;-82
2023/09/02 04:31:41;;;;;;;10.20;4.80;;;;;;;13.06;93.85;100797.42;105770;1260;99907;-85
2023/09/02 04:34:27;;;;;;;7.90;5.10;;;;;;;13.03;94.09;100800.30;105833;1261;97994;-84
2023/09/02 04:37:13;;;;;;;11.60;4.80;;;;;;;13.01;94.10;100799.42;105699;1260;98075;-84
2023/09/02 04:39:59;;;;;;;11.30;5.60;;;;;;;13.01;94.31;100804.73;105915;1261;98429;-85
2023/09/02 04:42:45;;;;;;;7.00;5.20;;;;;;;13.01;94.53;100806.88;105788;1260;102678;-84
2023/09/02 04:45:33;;;;;;;9.90;5.70;;;;;;;13.02;94.72;100810.52;105722;1261;99732;-86
2023/09/02 04:48:22;;;;;;;7.50;5.30;;;;;;;13.02;94.36;100817.45;105692;1260;99087;-84
2023/09/02 04:51:08;;;;;;;6.70;5.30;;;;;;;13.00;94.43;100823.85;105619;1269;97956;-85
2023/09/02 04:53:54;;;;;;;9.50;6.10;;;;;;;12.99;95.06;100826.59;105824;1264;98086;-84
2023/09/02 04:56:40;;;;;;;8.20;5.70;;;;;;;13.02;95.25;100823.75;105853;1264;102662;-86
2023/09/02 04:59:26;;;;;;;10.30;5.80;;;;;;;13.06;95.41;100821.70;105860;1264;99160;-85
2023/09/02 05:02:12;;;;;;;9.80;6.40;;;;;;;13.10;95.80;100825.16;105834;1264;99096;-85
2023/09/02 05:04:58;;;;;;;12.00;7.30;;;;;;;13.15;95.77;100823.17;105810;1260;98128;-85
2023/09/02 05:07:45;;;;;;;11.20;6.80;;;;;;;13.20;96.33;100827.58;105812;1266;98480;-84
2023/09/02 05:10:33;;;;;;;10.00;6.80;;;;;;;13.26;96.73;100831.21;105904;1261;101336;-85
2023/09/02 05:13:20;;;;;;;11.30;6.90;;;;;;;13.33;96.82;100832.12;105783;1261;99123;-85
2023/09/02 05:16:06;;;;;;;10.70;7.10;;;;;;;13.40;97.10;100834.06;105855;1262;97977;-84
2023/09/02 05:18:52;;;;;;;11.90;7.80;;;;;;;13.48;97.71;100832.62;105669;1260;97911;-86
2023/09/02 05:21:37;;;;;;;13.00;8.80;;;;;;;13.56;98.50;100834.81;105903;1261;98071;-84
2023/09/02 05:24:23;;;;;;;16.20;10.30;;;;;;;13.64;98.49;100837.54;105823;1264;102731;-84
2023/09/02 05:27:09;;;;;;;18.30;10.00;;;;;;;13.73;98.83;100838.15;105847;1267;99198;-84
2023/09/02 05:29:55;;;;;;;14.40;9.90;;;;;;;13.82;99.11;100846.42;106019;1264;99317;-85
2023/09/02 05:32:41;;;;;;;20.40;11.00;;;;;;;13.90;98.95;100844.21;105809;1262;98054;-85
2023/09/02 05:35:27;;;;;;;16.60;12.40;;;;;;;13.99;99.67;100842.52;105851;1261;98392;-84
2023/09/02 05:38:12;;;;;;;15.80;12.30;;;;;;;14.08;99.96;100849.03;105799;1266;101225;-85
2023/09/02 05:40:58;;;;;;;16.80;11.90;;;;;;;14.17;100.00;100851.60;105822;1264;99955;-84
2023/09/02 05:43:43;;;;;;;19.00;14.00;;;;;;;14.27;100.00;100851.25;105769;1266;98046;-83
2023/09/02 05:46:29;;;;;;;18.30;13.50;;;;;;;14.36;100.00;100850.99;105997;1261;97879;-85
2023/09/02 05:49:15;;;;;;;21.10;15.20;;;;;;;14.47;100.00;100853.70;105848;1261;97959;-85
2023/09/02 05:52:00;;;;;;;18.90;12.50;;;;;;;14.57;100.00;100858.45;105765;1269;101440;-83
2023/09/02 05:54:46;;;;;;;15.90;11.90;;;;;;;14.66;100.00;100855.54;105979;1262;99177;-84
2023/09/02 05:57:32;;;;;;;18.70;10.60;;;;;;;14.76;100.00;100861.60;105566;1262;100191;-84
2023/09/02 06:00:18;;;;;;;14.70;10.50;;;;;;;14.85;100.00;100861.81;105832;1260;97963;-80
2023/09/02 06:03:04;;;;;;;15.20;10.20;;;;;;;14.94;100.00;100860.60;106212;1264;98085;-86
2023/09/02 06:05:50;;;;;;;12.20;9.80;;;;;;;15.05;99.96;100867.52;106352;1260;101505;-86
2023/09/02 06:08:35;;;;;;;11.60;10.30;;;;;;;15.14;99.96;100865.27;105934;1262;99101;-84
2023/09/02 06:11:21;;;;;;;15.40;9.70;;;;;;;15.25;99.75;100872.56;105836;1261;106416;-86
2023/09/02 06:14:07;;;;;;;13.40;9.80;;;;;;;15.34;99.63;100871.83;105799;1261;98157;-85
2023/09/02 06:16:52;;;;;;;13.20;9.40;;;;;;;15.45;99.27;100875.20;105926;1261;97986;-86
2023/09/02 06:19:38;;;;;;;14.20;8.40;;;;;;;15.56;99.41;100875.29;106300;1264;101482;-86
2023/09/02 06:22:24;;;;;;;10.10;8.60;;;;;;;15.67;99.18;100872.57;105882;1267;101343;-85
2023/09/02 06:25:10;;;;;;;14.10;8.40;;;;;;;15.77;98.77;100874.80;106301;1265;99241;-85
2023/09/02 06:27:56;;;;;;;11.40;8.40;;;;;;;15.88;98.34;100877.59;106347;1262;97901;-89
2023/09/02 06:30:42;;;;;;;14.40;8.20;;;;;;;15.99;98.25;100877.16;106107;1262;97977;-82
2023/09/02 06:33:27;;;;;;;9.90;8.00;;;;;;;16.10;98.38;100876.65;105932;1264;101630;-84
2023/09/02 06:36:18;;;;;;;12.00;8.20;;;;;;;16.22;98.51;100876.20;106607;1260;100203;-89
2023/09/02 06:39:06;;;;;;;11.70;7.90;;;;;;;16.34;97.89;100879.18;106164;1266;98517;-84
2023/09/02 06:41:51;;;;;;;13.30;8.00;;;;;;;16.46;97.78;100883.40;105731;1261;98036;-81
2023/09/02 06:44:36;;;;;;;11.00;7.30;;;;;;;16.57;97.10;100884.92;106138;1263;98516;-85
2023/09/02 06:47:22;;;;;;;9.90;7.40;;;;;;;16.68;97.13;100890.45;105769;1261;101431;-83
2023/09/02 06:50:08;;;;;;;12.90;7.60;;;;;;;16.80;97.42;100889.53;106113;1261;100392;-85
2023/09/02 06:52:54;;;;;;;12.60;7.20;;;;;;;16.90;96.63;100893.08;106384;1264;99028;-90
2023/09/02 06:55:39;;;;;;;10.50;7.30;;;;;;;17.00;96.61;100893.66;105871;1262;97978;-82
2023/09/02 06:58:25;;;;;;;8.60;6.60;;;;;;;17.10;95.90;100898.11;106069;1261;97879;-89
2023/09/02 07:01:26;;;;;;;8.00;5.70;;;;;;;17.19;95.41;100902.36;106351;1269;102685;-84
2023/09/02 07:04:12;;;;;;;10.00;5.70;;;;;;;17.30;94.99;100906.21;106328;1262;99205;-87
2023/09/02 07:06:58;;;;;;;8.60;4.80;;;;;;;17.41;94.85;100912.48;105845;1260;98163;-85
2023/09/02 07:09:44;;;;;;;8.50;5.10;;;;;;;17.50;92.67;100916.86;105957;1264;97889;-86
2023/09/02 07:12:30;;;;;;;12.20;7.40;;;;;;;17.61;91.95;100921.17;105710;1261;99320;-86
2023/09/02 07:15:16;;;;;;;8.00;5.30;;;;;;;17.71;91.17;100921.61;105783;1261;101422;-87
2023/09/02 07:18:02;;;;;;;11.10;7.10;;;;;;;17.79;90.63;100924.94;105702;1261;99950;-87
2023/09/02 07:20:48;;;;;;;13.40;6.30;;;;;;;17.87;90.01;100928.65;105832;1262;98391;-86
2023/09/02 07:23:34;;;;;;;10.10;7.60;;;;;;;17.95;89.83;100927.97;105781;1268;97972;-86
2023/09/02 07:26:20;;;;;;;7.20;5.20;;;;;;;18.04;89.61;100930.12;105691;1261;98475;-86
2023/09/02 07:29:06;;;;;;;10.90;4.90;;;;;;;18.12;88.57;100935.26;105718;1262;102985;-87
2023/09/02 07:31:52;;;;;;;9.10;4.50;;;;;;;18.20;87.36;100933.79;105958;1261;99280;-87
2023/09/02 07:34:41;;;;;;;9.20;4.20;;;;;;;18.26;85.91;100935.75;105699;1261;98285;-87
2023/09/02 07:37:26;;;;;;;10.30;4.90;;;;;;;18.33;85.29;100940.23;106030;1267;97924;-86
2023/09/02 07:40:14;;;;;;;7.90;4.60;;;;;;;18.41;85.32;100943.98;105892;1264;98058;-86
2023/09/02 07:43:00;;;;;;;8.60;4.80;;;;;;;18.50;84.95;100944.50;105848;1267;102563;-85
2023/09/02 07:45:47;;;;;;;8.90;3.70;;;;;;;18.58;84.45;100943.05;105966;1264;100927;-87
2023/09/02 07:48:33;;;;;;;7.00;4.00;;;;;;;18.67;84.47;100943.59;105921;1262;98351;-86
2023/09/02 07:51:19;;;;;;;6.40;3.40;;;;;;;18.78;84.69;100945.23;105807;1269;98555;-85
2023/09/02 07:54:04;;;;;;;6.20;3.40;;;;;;;18.89;83.48;100949.48;105683;1267;97892;-86
2023/09/02 07:56:50;;;;;;;6.30;3.10;;;;;;;18.98;82.59;100955.52;105666;1261;101549;-86
2023/09/02 07:59:36;;;;;;;5.90;3.20;;;;;;;19.06;81.76;100957.52;106062;1260;100057;-86
2023/09/02 08:02:22;;;;;;;4.20;3.00;;;;;;;19.11;81.25;100961.23;105700;1262;98125;-87
2023/09/02 08:05:09;;;;;;;7.40;2.90;;;;;;;19.19;80.82;100968.13;105757;1261;98094;-85
2023/09/02 08:07:56;;;;;;;3.80;2.50;;;;;;;19.26;78.73;100970.11;105813;1266;95931;-86
2023/09/02 08:10:42;;;;;;;8.50;3.20;;;;;;;19.31;78.17;100968.35;105949;1261;101450;-86
2023/09/02 08:13:28;;;;;;;5.30;2.50;;;;;;;19.38;77.23;100972.02;105743;1264;100961;-86
2023/09/02 08:16:14;;;;;;;4.60;2.30;;;;;;;19.43;76.19;100973.89;105728;1267;98695;-87
2023/09/02 08:19:00;;;;;;;4.90;2.60;;;;;;;19.48;74.82;100977.69;105759;1261;98616;-86
2023/09/02 08:21:45;;;;;;;4.10;2.50;;;;;;;19.51;74.75;100980.77;105954;1261;98535;-85
2023/09/02 08:24:31;;;;;;;4.40;2.70;;;;;;;19.59;75.61;100977.45;105815;1262;102694;-82
2023/09/02 08:27:16;;;;;;;6.30;2.70;;;;;;;19.68;75.95;100979.37;105840;1260;99844;-82
2023/09/02 08:30:03;;;;;;;4.70;2.80;;;;;;;19.77;76.18;100980.22;105851;1261;98044;-82
2023/09/02 08:32:49;;;;;;;3.70;2.70;;;;;;;19.84;75.77;100982.72;105854;1263;98836;-81
2023/09/02 08:35:37;;;;;;;8.10;3.00;;;;;;;19.90;75.21;100983.78;105884;1264;98074;-81
2023/09/02 08:38:23;;;;;;;4.20;2.90;;;;;;;19.94;74.36;100986.21;105992;1262;102628;-81
2023/09/02 08:41:17;;;;;;;4.80;2.60;;;;;;;19.98;74.26;100985.11;105838;1262;99158;-82
2023/09/02 08:44:03;;;;;;;3.90;2.60;;;;;;;20.03;74.45;100990.38;105866;1267;99083;-82
2023/09/02 08:46:51;;;;;;;5.30;2.50;;;;;;;20.10;73.78;100988.11;105937;1264;98024;-82
2023/09/02 08:49:38;;;;;;;3.40;2.60;;;;;;;20.15;74.05;100987.90;105922;1261;100248;-82
2023/09/02 08:52:25;;;;;;;4.60;3.30;;;;;;;20.21;74.06;100988.33;105981;1266;101419;-81
2023/09/02 08:55:14;;;;;;;4.80;2.90;;;;;;;20.27;74.09;100991.36;105956;1264;99271;-81
2023/09/02 08:57:59;;;;;;;6.50;3.00;;;;;;;20.35;74.07;100991.56;105936;1264;98288;-82
2023/09/02 09:00:47;;;;;;;6.20;3.80;;;;;;;20.42;74.82;100992.80;106049;1264;97895;-82
2023/09/02 09:03:34;;;;;;;7.30;2.90;;;;;;;20.49;73.80;100993.01;105903;1264;98042;-83
2023/09/02 09:06:22;;;;;;;4.00;2.60;;;;;;;20.55;72.51;100996.39;105966;1264;101432;-82
2023/09/02 09:09:09;;;;;;;3.60;2.90;;;;;;;20.60;72.10;100997.30;105962;1266;99082;-82
2023/09/02 09:12:11;;;;;;;6.40;2.90;;;;;;;20.66;73.40;100994.91;105863;1261;98062;-84
2023/09/02 09:14:58;;;;;;;4.30;2.80;;;;;;;20.74;72.96;100991.58;106100;1260;98010;-84
2023/09/02 09:17:44;;;;;;;7.50;2.70;;;;;;;20.82;72.23;100997.44;105889;1261;98595;-81
2023/09/02 09:20:30;;;;;;;11.50;2.60;;;;;;;20.88;70.57;101000.71;105893;1260;101406;-81
2023/09/02 09:23:16;;;;;;;3.40;2.40;;;;;;;20.89;69.79;100998.77;105937;1265;99191;-82
2023/09/02 09:26:06;;;;;;;6.80;2.80;;;;;;;20.91;68.98;100997.02;105835;1264;99024;-82
2023/09/02 09:28:57;;;;;;;4.70;2.60;;;;;;;20.92;69.11;100997.25;105995;1264;97891;-82
2023/09/02 09:31:43;;;;;;;;;;;;;;;20.96;69.06;100997.04;106170;1264;97933;-82
2023/09/02 09:34:36;;;;;;;4.30;2.40;;;;;;;20.99;69.15;101000.31;106215;1264;101441;-82
2023/09/02 09:37:22;;;;;;;5.70;2.30;;;;;;;21.02;68.69;101005.03;105708;1264;99223;-82
2023/09/02 09:40:11;;;;;;;3.80;2.10;;;;;;;21.10;68.82;101002.14;106021;1264;98560;-83
2023/09/02 09:43:13;;;;;;;6.60;2.90;;;;;;;21.18;67.96;101011.33;106004;1264;98640;-81
2023/09/02 09:45:59;;;;;;;7.80;2.70;;;;;;;21.25;68.03;101012.75;105859;1269;98660;-81
2023/09/02 09:48:46;;;;;;;5.40;1.90;;;;;;;21.34;68.77;101007.98;106045;1264;101433;-82
2023/09/02 09:51:31;;;;;;;6.00;2.20;;;;;;;21.47;68.66;101014.21;106095;1267;99096;-83
2023/09/02 09:54:17;;;;;;;3.70;2.10;;;;;;;21.57;67.35;101018.56;106120;1264;99305;-81
2023/09/02 09:57:05;;;;;;;2.90;2.20;;;;;;;21.59;66.50;101019.26;105990;1264;97990;-82
2023/09/02 09:59:52;;;;;;;5.60;2.50;;;;;;;21.62;66.29;101017.33;105898;1264;96537;-82
2023/09/02 10:02:38;;;;;;;4.40;2.30;;;;;;;21.60;65.65;101018.28;106026;1264;101392;-81
2023/09/02 10:05:32;;;;;;;6.10;2.50;;;;;;;21.58;65.01;101016.45;106085;1264;99794;-83
2023/09/02 10:08:18;;;;;;;5.70;2.50;;;;;;;21.62;65.49;101019.02;105974;1261;106440;-82
2023/09/02 10:11:21;;;;;;;4.70;2.40;;;;;;;21.70;66.20;101019.64;105917;1261;97882;-81
2023/09/02 10:14:08;;;;;;;3.50;2.50;;;;;;;21.80;65.99;101021.33;105925;1260;98061;-81
2023/09/02 10:16:53;;;;;;;6.30;2.30;;;;;;;21.83;64.59;101022.27;105984;1260;101235;-82
2023/09/02 10:19:40;;;;;;;3.80;2.40;;;;;;;21.91;65.34;101024.67;105910;1264;99087;-81
2023/09/02 10:22:31;;;;;;;3.50;2.60;;;;;;;22.01;65.78;101024.83;105843;1264;99290;-82
2023/09/02 10:25:27;;;;;;;4.60;2.30;;;;;;;22.10;65.33;101025.77;105997;1264;97886;-81
2023/09/02 10:28:17;;;;;;;4.20;2.30;;;;;;;22.18;63.90;101024.73;105996;1260;98502;-83
2023/09/02 10:31:21;;;;;;;6.20;2.60;;;;;;;22.21;63.40;101024.22;106089;1264;101389;-82
2023/09/02 10:34:15;;;;;;;2.80;1.80;;;;;;;22.24;63.43;101021.64;105746;1268;99256;-82
2023/09/02 10:37:08;;;;;;;4.90;1.90;;;;;;;22.30;63.46;101028.39;105997;1268;98733;-81
2023/09/02 10:40:05;;;;;;;4.60;2.10;;;;;;;22.35;61.88;101031.35;105918;1264;99362;-83
2023/09/02 10:42:52;;;;;;;5.50;2.30;;;;;;;22.37;61.75;101029.94;105821;1264;97885;-81
2023/09/02 10:45:39;;;;;;;2.80;2.00;;;;;;;22.41;61.55;101032.60;105890;1266;102238;-83
2023/09/02 10:48:24;;;;;;;4.90;2.50;;;;;;;22.44;61.73;101031.17;106026;1264;100403;-82
2023/09/02 10:51:12;;;;;;;4.90;2.40;;;;;;;22.49;61.77;101032.23;105699;1265;98946;-84
2023/09/02 10:54:00;;;;;;;5.00;1.90;;;;;;;22.52;60.74;101032.20;105837;1270;98077;-82
2023/09/02 10:56:45;;;;;;;3.90;2.40;;;;;;;22.56;61.37;101037.13;105860;1262;98430;-80
2023/09/02 10:59:31;;;;;;;5.00;2.20;;;;;;;22.59;61.10;101041.48;106001;1266;101992;-82
2023/09/02 11:02:41;;;;;;;5.20;2.50;;;;;;;22.56;61.12;101041.27;106055;1264;100012;-81
2023/09/02 11:05:31;;;;;;;6.50;2.40;;;;;;;22.49;60.14;101041.72;105828;1267;98769;-81
2023/09/02 11:08:40;;;;;;;4.90;2.20;;;;;;;22.43;59.77;101042.46;105755;1264;99247;-81
2023/09/02 11:12:06;;;;;;;3.60;2.70;;;;;;;22.39;59.39;101048.90;106059;1266;97879;-82
2023/09/02 11:15:07;;;;;;;5.90;2.50;;;;;;;22.40;59.39;101052.52;106100;1266;102706;-82
2023/09/02 11:17:53;;;;;;;3.20;2.10;;;;;;;22.43;58.40;101048.70;105982;1260;99108;-82
2023/09/02 11:20:49;;;;;;;3.80;2.10;;;;;;;22.51;59.46;101052.16;105993;1261;98536;-82
2023/09/02 11:23:35;;;;;;;5.30;2.20;;;;;;;22.64;58.90;101052.09;106064;1267;97883;-82
2023/09/02 11:26:21;;;;;;;5.10;1.60;;;;;;;22.70;57.62;101048.52;106015;1264;98560;-79
2023/09/02 11:29:27;;;;;;;5.40;1.90;;;;;;;22.72;57.56;101042.30;106022;1260;101416;-83
2023/09/02 11:32:16;;;;;;;3.40;1.60;;;;;;;22.77;57.89;101045.48;105935;1265;100027;-82
2023/09/02 11:35:24;;;;;;;3.30;1.50;;;;;;;22.88;58.36;101044.52;105832;1265;100570;-80
2023/09/02 11:38:20;;;;;;;3.60;1.80;;;;;;;22.97;58.10;101042.14;106085;1264;97978;-81
2023/09/02 11:41:07;;;;;;;2.90;1.70;;;;;;;23.03;57.64;101044.12;105936;1264;97880;-81
2023/09/02 11:43:53;;;;;;;3.00;1.90;;;;;;;23.08;56.94;101047.56;105735;1261;101409;-80
2023/09/02 11:46:40;;;;;;;3.30;1.90;;;;;;;23.14;56.31;101048.61;105979;1264;99597;-81
2023/09/02 11:49:26;;;;;;;8.50;2.10;;;;;;;23.24;57.01;101049.52;105893;1261;98471;-82
2023/09/02 11:52:13;;;;;;;5.00;1.70;;;;;;;23.35;56.87;101047.85;105983;1260;98058;-82
2023/09/02 11:55:15;;;;;;;2.90;1.50;;;;;;;23.45;56.58;101050.69;106139;1264;98501;-82
2023/09/02 11:58:07;;;;;;;3.20;2.00;;;;;;;23.55;57.61;101050.60;106031;1263;102628;-82
2023/09/02 12:00:53;;;;;;;3.90;1.70;;;;;;;23.65;56.97;101050.29;107992;1266;99242;-81
2023/09/02 12:03:39;;;;;;;3.30;2.00;;;;;;;23.65;56.16;101049.75;105992;1262;98009;-81
2023/09/02 12:06:28;;;;;;;4.20;2.20;;;;;;;23.58;55.32;101055.83;105870;1266;96312;-81
2023/09/02 12:09:14;;;;;;;4.40;2.00;;;;;;;23.56;55.80;101054.11;105945;1266;98486;-81
2023/09/02 12:12:00;;;;;;;2.00;1.80;;;;;;;23.61;56.43;101054.65;106050;1264;102257;-81
2023/09/02 12:14:47;;;;;;;2.50;1.70;;;;;;;23.65;55.93;101051.29;105955;1267;100326;-81
2023/09/02 12:17:32;;;;;;;4.90;1.90;;;;;;;23.66;55.37;101047.02;105980;1263;97977;-80
2023/09/02 12:20:18;;;;;;;2.50;1.70;;;;;;;23.68;55.55;101050.33;106011;1261;98475;-82
2023/09/02 12:23:05;;;;;;;3.90;1.80;;;;;;;23.61;55.22;101051.02;106053;1261;97845;-81
2023/09/02 12:26:03;;;;;;;7.30;1.70;;;;;;;23.57;55.64;101052.20;105934;1260;101365;-82
2023/09/02 12:28:49;;;;;;;3.00;1.90;;;;;;;23.56;55.03;101052.47;105898;1264;100438;-82
2023/09/02 12:31:35;;;;;;;3.60;1.80;;;;;;;23.53;54.78;101052.11;105952;1264;99063;-82
2023/09/02 12:34:38;;;;;;;2.10;1.70;;;;;;;23.45;54.99;101053.41;105962;1267;97967;-80
2023/09/02 12:37:24;;;;;;;2.40;1.90;;;;;;;23.49;56.32;101059.95;105955;1263;98484;-81
2023/09/02 12:40:12;;;;;;;2.70;1.60;;;;;;;23.55;56.47;101060.99;105937;1261;101350;-88
2023/09/02 12:43:01;;;;;;;3.40;2.10;;;;;;;23.59;55.89;101063.70;106049;1260;99906;-83
2023/09/02 12:45:46;;;;;;;5.00;2.00;;;;;;;23.57;55.39;101067.57;106008;1260;134495;-83